createdAt,value
2022-09-04T00:00:15.643Z,15.98
2022-09-04T00:03:19.154Z,13.77
2022-09-04T00:06:02.336Z,17.60
2022-09-04T00:09:07.808Z,19.13
2022-09-04T00:12:05.106Z,13.25
2022-09-04T00:14:51.677Z,16.70
2022-09-04T00:17:37.478Z,12.85
2022-09-04T00:20:22.033Z,14.60
2022-09-04T00:23:12.452Z,16.25
2022-09-04T00:25:57.703Z,15.75
2022-09-04T00:29:06.130Z,14.57
2022-09-04T00:32:12.226Z,12.98
2022-09-04T00:35:25.198Z,15.10
2022-09-04T00:38:37.110Z,12.23
2022-09-04T00:42:03.193Z,13.07
2022-09-04T00:45:20.878Z,13.60
2022-09-04T00:48:16.795Z,17.63
2022-09-04T00:51:16.873Z,19.27
2022-09-04T00:54:30.656Z,15.35
2022-09-04T00:57:25.605Z,17.13
2022-09-04T01:00:16.656Z,14.52
2022-09-04T01:03:19.372Z,14.52
2022-09-04T01:06:19.827Z,15.35
2022-09-04T01:09:07.442Z,16.98
2022-09-04T01:12:06.130Z,15.30
2022-09-04T01:15:26.107Z,12.63
2022-09-04T01:18:00.106Z,12.90
2022-09-04T01:21:01.640Z,11.73
2022-09-04T01:24:07.878Z,11.40
2022-09-04T01:26:59.424Z,11.48
2022-09-04T01:30:09.467Z,10.45
2022-09-04T01:33:13.444Z,11.35
2022-09-04T01:35:56.123Z,12.90
2022-09-04T01:38:51.876Z,12.95
2022-09-04T01:41:38.209Z,13.63
2022-09-04T01:44:11.583Z,11.77
2022-09-04T01:47:14.997Z,14.07
2022-09-04T01:50:11.273Z,17.05
2022-09-04T01:53:18.824Z,11.70
2022-09-04T01:56:05.581Z,13.75
2022-09-04T01:58:45.361Z,14.98
2022-09-04T02:02:06.909Z,13.05
2022-09-04T02:05:05.078Z,12.97
2022-09-04T02:08:21.505Z,11.63
2022-09-04T02:11:13.546Z,9.20
2022-09-04T02:17:08.426Z,19.08
2022-09-04T02:20:12.396Z,15.98
2022-09-04T02:23:18.192Z,17.60
2022-09-04T02:26:01.154Z,12.50
2022-09-04T02:28:50.981Z,16.83
2022-09-04T02:31:35.379Z,15.02
2022-09-04T02:34:14.734Z,18.00
2022-09-04T02:36:50.211Z,17.10
2022-09-04T02:39:36.314Z,15.57
2022-09-04T02:42:22.130Z,13.60
2022-09-04T02:45:34.627Z,13.77
2022-09-04T02:48:47.197Z,14.00
2022-09-04T02:51:48.327Z,16.85
2022-09-04T02:55:18.318Z,18.95
2022-09-04T02:58:07.960Z,17.67
2022-09-04T03:01:22.167Z,19.42
2022-09-04T03:04:32.626Z,17.25
2022-09-04T03:07:29.534Z,23.40
2022-09-04T03:10:24.779Z,22.30
2022-09-04T03:13:38.682Z,17.63
2022-09-04T03:16:53.804Z,22.42
2022-09-04T03:20:00.426Z,25.55
2022-09-04T03:22:44.089Z,24.83
2022-09-04T03:25:37.092Z,22.27
2022-09-04T03:28:12.840Z,23.60
2022-09-04T03:30:43.007Z,20.05
2022-09-04T03:33:35.033Z,20.85
2022-09-04T03:36:12.334Z,19.25
2022-09-04T03:38:48.926Z,20.60
2022-09-04T03:41:42.828Z,24.65
2022-09-04T03:44:37.489Z,19.63
2022-09-04T03:47:15.438Z,19.08
2022-09-04T03:50:13.837Z,17.85
2022-09-04T03:53:24.890Z,16.08
2022-09-04T03:56:34.287Z,18.10
2022-09-04T03:59:06.151Z,18.52
2022-09-04T04:04:47.001Z,16.98
2022-09-04T04:07:35.721Z,14.95
2022-09-04T04:10:25.799Z,16.80
2022-09-04T04:13:37.012Z,18.42
2022-09-04T04:16:41.159Z,12.98
2022-09-04T04:19:17.991Z,15.35
2022-09-04T04:22:30.094Z,14.40
2022-09-04T04:25:25.356Z,11.48
2022-09-04T04:28:48.351Z,12.18
2022-09-04T04:31:37.197Z,12.13
2022-09-04T04:34:41.459Z,14.98
2022-09-04T04:37:43.689Z,13.68
2022-09-04T04:41:00.352Z,13.07
2022-09-04T04:44:17.628Z,10.35
2022-09-04T04:47:27.705Z,12.50
2022-09-04T04:50:22.648Z,12.60
2022-09-04T04:53:14.955Z,11.10
2022-09-04T04:55:56.006Z,10.33
2022-09-04T04:59:20.898Z,8.40
2022-09-04T05:02:09.533Z,8.82
2022-09-04T05:05:13.725Z,10.88
2022-09-04T05:08:16.714Z,8.98
2022-09-04T05:11:05.576Z,9.07
2022-09-04T05:14:01.269Z,9.55
2022-09-04T05:17:06.785Z,7.88
2022-09-04T05:20:26.079Z,7.70
2022-09-04T05:23:13.016Z,8.70
2022-09-04T05:26:17.226Z,10.70
2022-09-04T05:29:01.806Z,9.27
2022-09-04T05:31:58.479Z,6.05
2022-09-04T05:35:02.390Z,6.18
2022-09-04T05:38:06.288Z,7.20
2022-09-04T05:40:58.933Z,5.82
2022-09-04T05:43:32.555Z,5.45
2022-09-04T05:46:13.572Z,5.32
2022-09-04T05:49:09.132Z,4.68
2022-09-04T05:52:09.213Z,4.88
2022-09-04T05:55:16.251Z,6.00
2022-09-04T05:58:42.099Z,6.40
2022-09-04T06:01:36.353Z,5.32
2022-09-04T06:05:09.460Z,4.40
2022-09-04T06:08:15.774Z,6.50
2022-09-04T06:10:59.684Z,5.43
2022-09-04T06:14:08.298Z,4.40
2022-09-04T06:17:10.431Z,5.03
2022-09-04T06:20:03.176Z,5.88
2022-09-04T06:22:52.783Z,5.20
2022-09-04T06:26:02.926Z,4.43
2022-09-04T06:29:07.330Z,5.05
2022-09-04T06:32:29.940Z,5.78
2022-09-04T06:35:08.141Z,4.25
2022-09-04T06:38:30.726Z,4.72
2022-09-04T06:41:31.571Z,3.92
2022-09-04T06:44:29.086Z,4.97
2022-09-04T06:47:16.998Z,3.42
2022-09-04T06:50:45.354Z,3.22
2022-09-04T06:53:58.020Z,3.88
2022-09-04T06:56:46.175Z,3.30
2022-09-04T06:59:30.657Z,3.10
2022-09-04T07:02:38.687Z,6.22
2022-09-04T07:05:28.799Z,4.93
2022-09-04T07:08:30.676Z,2.83
2022-09-04T07:11:24.629Z,3.15
2022-09-04T07:14:20.581Z,5.32
2022-09-04T07:17:36.967Z,2.58
2022-09-04T07:20:22.818Z,6.43
2022-09-04T07:23:27.320Z,3.17
2022-09-04T07:26:37.329Z,2.47
2022-09-04T07:29:42.101Z,3.17
2022-09-04T07:32:40.301Z,3.75
2022-09-04T07:35:21.581Z,2.42
2022-09-04T07:38:33.743Z,3.67
2022-09-04T07:41:44.656Z,2.63
2022-09-04T07:44:29.806Z,2.90
2022-09-04T07:47:20.882Z,2.42
2022-09-04T07:50:11.302Z,2.83
2022-09-04T07:53:03.666Z,3.70
2022-09-04T07:55:48.585Z,3.38
2022-09-04T07:58:55.507Z,3.60
2022-09-04T08:01:54.916Z,4.43
2022-09-04T08:04:33.435Z,4.25
2022-09-04T08:07:10.777Z,3.85
2022-09-04T08:10:26.589Z,2.83
2022-09-04T08:13:14.264Z,2.95
2022-09-04T08:16:33.018Z,2.40
2022-09-04T08:19:11.592Z,5.03
2022-09-04T08:21:47.390Z,2.13
2022-09-04T08:24:58.355Z,3.42
2022-09-04T08:27:50.285Z,2.75
2022-09-04T08:30:21.868Z,2.90
2022-09-04T08:35:41.171Z,3.22
2022-09-04T08:38:46.232Z,3.67
2022-09-04T08:41:29.187Z,2.60
2022-09-04T08:44:32.821Z,3.92
2022-09-04T08:47:17.932Z,3.75
2022-09-04T08:50:13.353Z,11.00
2022-09-04T08:53:11.834Z,3.03
2022-09-04T08:56:18.981Z,3.83
2022-09-04T08:59:01.863Z,6.57
2022-09-04T09:02:31.203Z,3.88
2022-09-04T09:05:14.898Z,4.07
2022-09-04T09:08:57.470Z,2.97
2022-09-04T09:11:41.417Z,2.88
2022-09-04T09:15:06.321Z,3.10
2022-09-04T09:17:57.050Z,5.22
2022-09-04T09:21:08.890Z,3.75
2022-09-04T09:24:24.327Z,4.60
2022-09-04T09:27:13.832Z,4.10
2022-09-04T09:30:21.104Z,2.90
2022-09-04T09:33:44.041Z,3.30
2022-09-04T09:36:37.120Z,4.32
2022-09-04T09:39:31.123Z,2.10
2022-09-04T09:42:48.551Z,3.88
2022-09-04T09:45:55.102Z,3.63
2022-09-04T09:49:00.848Z,1.73
2022-09-04T09:52:25.168Z,2.03
2022-09-04T09:55:45.790Z,1.98
2022-09-04T09:58:55.536Z,3.67
2022-09-04T10:01:26.426Z,2.45
2022-09-04T10:04:12.200Z,3.35
2022-09-04T10:07:11.404Z,4.70
2022-09-04T10:10:24.734Z,4.45
2022-09-04T10:13:35.370Z,3.42
2022-09-04T10:16:24.957Z,3.17
2022-09-04T10:19:19.198Z,3.72
2022-09-04T10:22:26.162Z,6.50
2022-09-04T10:25:09.903Z,5.63
2022-09-04T10:27:47.042Z,6.05
2022-09-04T10:30:21.525Z,3.85
2022-09-04T10:33:10.723Z,5.63
2022-09-04T10:36:04.870Z,3.63
2022-09-04T10:39:09.439Z,4.57
2022-09-04T10:42:29.262Z,6.10
2022-09-04T10:45:27.612Z,4.38
2022-09-04T10:48:17.739Z,6.32
2022-09-04T10:51:28.324Z,4.18
2022-09-04T10:54:30.550Z,4.85
2022-09-04T10:57:37.539Z,4.97
2022-09-04T11:00:14.208Z,8.50
2022-09-04T11:03:30.516Z,4.90
2022-09-04T11:06:49.448Z,4.28
2022-09-04T11:09:39.400Z,5.03
2022-09-04T11:13:00.226Z,3.88
2022-09-04T11:15:28.400Z,7.45
2022-09-04T11:18:22.420Z,4.78
2022-09-04T11:21:21.975Z,3.33
2022-09-04T11:24:26.982Z,5.13
2022-09-04T11:27:22.813Z,7.05
2022-09-04T11:29:54.694Z,4.75
2022-09-04T11:32:53.126Z,5.18
2022-09-04T11:36:23.799Z,5.47
2022-09-04T11:39:03.425Z,5.88
2022-09-04T11:42:21.394Z,3.90
2022-09-04T11:45:16.896Z,5.05
2022-09-04T11:48:09.886Z,4.18
2022-09-04T11:51:09.767Z,3.85
2022-09-04T11:53:44.415Z,6.30
2022-09-04T11:56:25.897Z,3.90
2022-09-04T12:01:32.298Z,3.58
2022-09-04T12:04:12.138Z,4.13
2022-09-04T12:07:09.180Z,4.75
2022-09-04T12:10:21.222Z,5.30
2022-09-04T12:13:31.128Z,3.50
2022-09-04T12:16:18.606Z,6.65
2022-09-04T12:18:58.648Z,4.40
2022-09-04T12:22:09.127Z,4.68
2022-09-04T12:25:03.294Z,4.82
2022-09-04T12:28:18.607Z,9.65
2022-09-04T12:30:56.511Z,4.10
2022-09-04T12:34:05.501Z,6.05
2022-09-04T12:36:47.696Z,5.88
2022-09-04T12:40:01.575Z,9.65
2022-09-04T12:43:01.111Z,5.43
2022-09-04T12:46:00.674Z,3.13
2022-09-04T12:48:55.976Z,5.07
2022-09-04T12:51:25.386Z,5.05
2022-09-04T12:54:13.564Z,5.00
2022-09-04T12:56:53.778Z,5.82
2022-09-04T12:59:36.161Z,4.85
2022-09-04T13:02:13.251Z,4.07
2022-09-04T13:05:22.205Z,4.00
2022-09-04T13:08:18.991Z,4.40
2022-09-04T13:11:25.976Z,4.78
2022-09-04T13:14:39.680Z,5.20
2022-09-04T13:17:43.844Z,3.55
2022-09-04T13:20:48.641Z,4.75
2022-09-04T13:24:19.827Z,4.95
2022-09-04T13:27:16.352Z,5.97
2022-09-04T13:30:22.159Z,10.45
2022-09-04T13:33:39.974Z,5.93
2022-09-04T13:36:32.590Z,4.22
2022-09-04T13:39:18.804Z,4.40
2022-09-04T13:42:14.587Z,4.80
2022-09-04T13:45:26.935Z,5.53
2022-09-04T13:48:33.208Z,7.05
2022-09-04T13:51:20.270Z,5.07
2022-09-04T13:54:07.611Z,4.35
2022-09-04T13:56:49.875Z,4.72
2022-09-04T13:59:21.032Z,3.58
2022-09-04T14:01:56.406Z,7.10
2022-09-04T14:04:44.374Z,3.75
2022-09-04T14:07:36.255Z,6.30
2022-09-04T14:10:21.488Z,5.28
2022-09-04T14:13:25.804Z,5.40
2022-09-04T14:16:07.026Z,5.57
2022-09-04T14:19:15.580Z,5.13
2022-09-04T14:22:24.311Z,5.32
2022-09-04T14:25:16.032Z,5.65
2022-09-04T14:28:15.249Z,4.90
2022-09-04T14:31:34.130Z,8.40
2022-09-04T14:34:40.030Z,5.40
2022-09-04T14:37:46.577Z,5.90
2022-09-04T14:40:34.558Z,4.45
2022-09-04T14:43:44.823Z,5.90
2022-09-04T14:46:27.409Z,4.50
2022-09-04T14:49:25.264Z,5.30
2022-09-04T14:51:56.984Z,6.45
2022-09-04T14:54:33.445Z,4.97
2022-09-04T14:57:40.381Z,4.93
2022-09-04T15:00:21.066Z,6.22
2022-09-04T15:03:21.519Z,5.78
2022-09-04T15:05:57.892Z,5.43
2022-09-04T15:08:35.689Z,5.95
2022-09-04T15:11:10.634Z,6.25
2022-09-04T15:13:52.586Z,5.55
2022-09-04T15:16:31.971Z,5.35
2022-09-04T15:19:38.769Z,4.40
2022-09-04T15:22:54.009Z,5.32
2022-09-04T15:25:59.605Z,6.57
2022-09-04T15:28:53.430Z,3.95
2022-09-04T15:31:46.853Z,8.07
2022-09-04T15:34:26.056Z,6.03
2022-09-04T15:37:08.369Z,4.78
2022-09-04T15:39:46.149Z,3.60
2022-09-04T15:42:46.263Z,9.13
2022-09-04T15:45:45.037Z,11.73
2022-09-04T15:48:56.934Z,11.63
2022-09-04T15:54:15.677Z,5.28
2022-09-04T15:57:17.509Z,4.53
2022-09-04T16:03:09.251Z,6.75
2022-09-04T16:05:49.348Z,8.57
2022-09-04T16:08:26.494Z,4.32
2022-09-04T16:11:28.586Z,6.18
2022-09-04T16:14:11.943Z,7.50
2022-09-04T16:16:54.835Z,6.25
2022-09-04T16:19:27.963Z,4.18
2022-09-04T16:22:25.926Z,5.28
2022-09-04T16:25:47.833Z,4.85
2022-09-04T16:28:46.687Z,6.68
2022-09-04T16:31:30.319Z,5.55
2022-09-04T16:34:11.828Z,6.65
2022-09-04T16:36:48.660Z,4.75
2022-09-04T16:39:47.376Z,7.35
2022-09-04T16:42:51.710Z,6.07
2022-09-04T16:45:30.770Z,8.63
2022-09-04T16:48:12.697Z,10.45
2022-09-04T16:51:41.067Z,9.25
2022-09-04T16:54:31.996Z,3.90
2022-09-04T16:57:21.887Z,5.28
2022-09-04T17:00:14.951Z,6.38
2022-09-04T17:03:03.909Z,6.63
2022-09-04T17:05:51.763Z,6.32
2022-09-04T17:08:40.299Z,10.48
2022-09-04T17:11:26.853Z,7.03
2022-09-04T17:14:22.316Z,5.00
2022-09-04T17:17:31.331Z,5.93
2022-09-04T17:20:21.260Z,8.65
2022-09-04T17:29:02.429Z,8.05
2022-09-04T17:29:14.175Z,7.25
2022-09-04T17:29:49.385Z,32.72
2022-09-04T17:37:42.034Z,17.38
2022-09-04T17:40:36.302Z,8.05
2022-09-04T17:40:47.088Z,7.78
2022-09-04T17:42:27.007Z,8.50
2022-09-04T17:45:28.988Z,10.48
2022-09-04T17:48:30.091Z,6.57
2022-09-04T17:51:02.197Z,8.45
2022-09-04T17:53:34.942Z,8.10
2022-09-04T17:56:37.104Z,6.30
2022-09-04T17:59:29.981Z,9.18
2022-09-04T18:02:27.109Z,11.57
2022-09-04T18:05:11.859Z,7.97
2022-09-04T18:08:30.357Z,7.47
2022-09-04T18:11:18.229Z,8.93
2022-09-04T18:14:15.457Z,8.68
2022-09-04T18:17:12.612Z,14.00
2022-09-04T18:20:00.875Z,9.07
2022-09-04T18:22:56.562Z,11.10
2022-09-04T18:25:49.018Z,8.30
2022-09-04T18:28:50.762Z,6.07
2022-09-04T18:37:07.302Z,5.15
2022-09-04T18:37:21.858Z,5.18
2022-09-04T18:37:59.695Z,8.48
2022-09-04T18:45:07.214Z,6.22
2022-09-04T18:50:22.758Z,6.32
2022-09-04T18:50:44.272Z,7.10
2022-09-04T18:50:53.391Z,5.75
2022-09-04T18:52:43.703Z,5.10
2022-09-04T18:55:24.290Z,7.47
2022-09-04T18:58:02.025Z,10.73
2022-09-04T19:00:56.854Z,6.28
2022-09-04T19:03:55.241Z,6.55
2022-09-04T19:07:07.167Z,8.13
2022-09-04T19:09:56.711Z,6.35
2022-09-04T19:12:47.087Z,7.55
2022-09-04T19:15:45.071Z,6.70
2022-09-04T19:18:45.575Z,7.82
2022-09-04T19:21:57.857Z,6.40
2022-09-04T19:24:47.198Z,5.07
2022-09-04T19:27:33.399Z,7.75
2022-09-04T19:30:18.681Z,8.90
2022-09-04T19:33:39.754Z,8.52
2022-09-04T19:36:32.477Z,6.07
2022-09-04T19:45:54.911Z,8.48
2022-09-04T19:46:02.353Z,8.75
2022-09-04T19:46:29.767Z,11.40
2022-09-04T19:52:10.558Z,10.65
2022-09-04T19:53:33.024Z,8.40
2022-09-04T19:56:16.046Z,13.40
2022-09-04T19:59:22.712Z,10.38
2022-09-04T20:01:58.128Z,6.97
2022-09-04T20:04:49.604Z,9.25
2022-09-04T20:07:58.509Z,12.27
2022-09-04T20:11:01.252Z,8.68
2022-09-04T20:14:11.408Z,10.63
2022-09-04T20:17:10.004Z,9.23
2022-09-04T20:19:54.637Z,9.90
2022-09-04T20:22:45.563Z,9.20
2022-09-04T20:25:58.555Z,9.38
2022-09-04T20:29:03.197Z,7.60
2022-09-04T20:31:57.064Z,10.75
2022-09-04T20:34:53.059Z,9.77
2022-09-04T20:37:38.945Z,8.60
2022-09-04T20:40:37.362Z,10.93
2022-09-04T20:43:08.250Z,10.85
2022-09-04T20:52:46.018Z,9.70
2022-09-04T20:52:55.269Z,12.15
2022-09-04T20:52:59.846Z,9.40
2022-09-04T20:55:37.290Z,9.18
2022-09-04T21:03:14.204Z,12.40
2022-09-04T21:03:19.029Z,16.35
2022-09-04T21:05:40.576Z,12.38
2022-09-04T21:08:54.076Z,14.48
2022-09-04T21:11:47.732Z,17.65
2022-09-04T21:14:45.779Z,11.55
2022-09-04T21:17:34.717Z,11.52
2022-09-04T21:20:29.474Z,16.15
2022-09-04T21:23:12.564Z,11.75
2022-09-04T21:25:59.102Z,15.05
2022-09-04T21:29:10.749Z,13.93
2022-09-04T21:32:10.046Z,13.60
2022-09-04T21:35:15.175Z,13.57
2022-09-04T21:37:50.227Z,11.10
2022-09-04T21:40:52.686Z,13.90
2022-09-04T21:44:18.112Z,10.32
2022-09-04T21:47:16.905Z,11.02
2022-09-04T21:50:34.538Z,11.50
2022-09-04T21:53:53.359Z,9.45
2022-09-04T22:00:28.943Z,12.38
2022-09-04T22:02:39.896Z,13.02
2022-09-04T22:03:02.451Z,10.15
2022-09-04T22:06:03.830Z,11.63
2022-09-04T22:13:29.799Z,13.85
2022-09-04T22:13:40.330Z,8.63
2022-09-04T22:15:02.970Z,11.65
2022-09-04T22:18:10.184Z,10.90
2022-09-04T22:21:06.090Z,10.10
2022-09-04T22:24:13.524Z,11.52
2022-09-04T22:27:08.667Z,10.70
2022-09-04T22:30:03.240Z,9.13
2022-09-04T22:33:04.100Z,10.10
2022-09-04T22:36:13.613Z,12.38
2022-09-04T22:39:54.392Z,11.43
2022-09-04T22:42:47.665Z,10.60
2022-09-04T22:45:53.325Z,14.90
2022-09-04T22:48:30.176Z,11.68
2022-09-04T22:51:07.162Z,12.98
2022-09-04T22:54:24.234Z,12.35
2022-09-04T22:57:06.680Z,8.50
2022-09-04T23:00:15.543Z,14.32
2022-09-04T23:03:10.184Z,10.50
2022-09-04T23:06:16.207Z,11.63
2022-09-04T23:13:53.602Z,9.02
2022-09-04T23:13:58.563Z,8.40
2022-09-04T23:15:50.963Z,10.88
2022-09-04T23:24:34.348Z,12.18
2022-09-04T23:26:44.407Z,9.30
2022-09-04T23:26:49.805Z,9.90
2022-09-04T23:28:27.803Z,10.40
2022-09-04T23:31:33.601Z,10.48
2022-09-04T23:34:13.273Z,15.40
2022-09-04T23:37:21.544Z,11.68
2022-09-04T23:40:19.608Z,9.88
2022-09-04T23:43:09.486Z,10.85
2022-09-04T23:46:23.854Z,11.85
2022-09-04T23:49:27.051Z,8.52
2022-09-04T23:52:15.817Z,10.65
2022-09-04T23:55:15.803Z,10.63
2022-09-04T23:58:22.952Z,10.15
